createdAt,value
2019-03-26T00:00:29.976Z,6.93
2019-03-26T00:02:57.525Z,7.03
2019-03-26T00:05:24.944Z,8.57
2019-03-26T00:07:52.794Z,9.43
2019-03-26T00:10:20.283Z,9.07
2019-03-26T00:12:47.657Z,8.67
2019-03-26T00:15:15.064Z,9.50
2019-03-26T00:17:42.449Z,9.57
2019-03-26T00:20:09.934Z,10.03
2019-03-26T00:22:37.312Z,8.43
2019-03-26T00:25:05.365Z,8.83
2019-03-26T00:27:32.779Z,9.40
2019-03-26T00:30:00.356Z,10.83
2019-03-26T00:32:27.868Z,9.37
2019-03-26T00:34:55.274Z,8.80
2019-03-26T00:37:22.658Z,9.17
2019-03-26T00:39:50.069Z,9.03
2019-03-26T00:42:17.479Z,9.37
2019-03-26T00:44:44.884Z,9.30
2019-03-26T00:47:12.273Z,9.50
2019-03-26T00:49:39.660Z,8.90
2019-03-26T00:52:07.085Z,8.10
2019-03-26T00:54:34.466Z,9.10
2019-03-26T00:57:01.881Z,10.47
2019-03-26T00:59:29.266Z,9.60
2019-03-26T01:01:56.677Z,9.10
2019-03-26T01:04:32.687Z,8.13
2019-03-26T01:06:53.121Z,9.33
2019-03-26T01:09:20.510Z,8.93
2019-03-26T01:11:47.918Z,8.67
2019-03-26T01:14:15.299Z,8.00
2019-03-26T01:16:42.708Z,9.07
2019-03-26T01:19:10.093Z,8.27
2019-03-26T01:21:37.508Z,7.80
2019-03-26T01:24:04.964Z,7.80
2019-03-26T01:26:32.373Z,7.70
2019-03-26T01:28:59.762Z,7.73
2019-03-26T01:31:27.183Z,7.17
2019-03-26T01:33:54.570Z,8.73
2019-03-26T01:36:21.988Z,8.23
2019-03-26T01:38:49.366Z,9.30
2019-03-26T01:41:16.786Z,8.27
2019-03-26T01:43:44.164Z,7.87
2019-03-26T01:46:11.571Z,7.80
2019-03-26T01:48:38.954Z,8.20
2019-03-26T01:51:06.369Z,7.77
2019-03-26T01:53:33.752Z,7.77
2019-03-26T01:56:01.166Z,9.43
2019-03-26T01:58:28.537Z,8.83
2019-03-26T02:00:55.923Z,9.87
2019-03-26T02:03:23.344Z,10.10
2019-03-26T02:05:50.713Z,9.63
2019-03-26T02:08:18.128Z,11.37
2019-03-26T02:10:45.516Z,10.33
2019-03-26T02:13:13.002Z,9.97
2019-03-26T02:15:40.385Z,9.57
2019-03-26T02:18:07.797Z,10.10
2019-03-26T02:20:35.177Z,8.80
2019-03-26T02:23:02.610Z,10.73
2019-03-26T02:25:30.058Z,9.87
2019-03-26T02:27:58.345Z,10.20
2019-03-26T02:30:25.728Z,9.93
2019-03-26T02:32:53.142Z,8.90
2019-03-26T02:35:20.524Z,9.90
2019-03-26T02:37:47.949Z,10.30
2019-03-26T02:40:15.318Z,8.63
2019-03-26T02:42:42.732Z,10.03
2019-03-26T02:45:10.181Z,8.57
2019-03-26T02:47:37.692Z,9.13
2019-03-26T02:50:06.250Z,9.57
2019-03-26T02:52:33.669Z,8.30
2019-03-26T02:55:01.063Z,8.23
2019-03-26T02:57:28.465Z,7.80
2019-03-26T02:59:55.857Z,8.13
2019-03-26T03:02:23.291Z,8.40
2019-03-26T03:04:50.646Z,7.80
2019-03-26T03:07:18.134Z,8.37
2019-03-26T03:09:45.515Z,8.53
2019-03-26T03:12:12.935Z,7.83
2019-03-26T03:14:40.312Z,8.50
2019-03-26T03:17:07.730Z,7.63
2019-03-26T03:19:35.113Z,8.20
2019-03-26T03:22:02.722Z,8.13
2019-03-26T03:24:30.084Z,7.73
2019-03-26T03:26:57.477Z,7.90
2019-03-26T03:29:24.883Z,9.33
2019-03-26T03:31:52.266Z,7.90
2019-03-26T03:34:19.684Z,8.63
2019-03-26T03:36:47.065Z,8.37
2019-03-26T03:39:14.486Z,8.80
2019-03-26T03:41:41.947Z,8.77
2019-03-26T03:44:09.346Z,8.50
2019-03-26T03:46:36.808Z,8.23
2019-03-26T03:49:04.703Z,8.30
2019-03-26T03:51:33.359Z,8.77
2019-03-26T03:54:00.853Z,8.80
2019-03-26T03:56:29.305Z,8.70
2019-03-26T03:58:58.088Z,8.60
2019-03-26T04:01:25.477Z,7.57
2019-03-26T04:03:52.959Z,9.97
2019-03-26T04:06:20.341Z,8.63
2019-03-26T04:08:47.747Z,9.60
2019-03-26T04:11:15.130Z,8.43
2019-03-26T04:13:42.538Z,8.77
2019-03-26T04:16:09.922Z,9.37
2019-03-26T04:18:37.426Z,10.00
2019-03-26T04:21:04.911Z,9.60
2019-03-26T04:23:32.326Z,9.77
2019-03-26T04:25:59.711Z,10.00
2019-03-26T04:28:27.121Z,10.73
2019-03-26T04:30:54.517Z,9.27
2019-03-26T04:33:22.032Z,10.97
2019-03-26T04:35:49.428Z,10.73
2019-03-26T04:38:16.833Z,9.80
2019-03-26T04:40:44.213Z,9.60
2019-03-26T04:43:11.593Z,11.27
2019-03-26T04:45:39.000Z,9.80
2019-03-26T04:48:06.378Z,9.63
2019-03-26T04:50:33.861Z,11.83
2019-03-26T04:53:01.262Z,10.63
2019-03-26T04:55:28.675Z,9.83
2019-03-26T04:57:56.532Z,10.83
2019-03-26T05:00:23.958Z,10.10
2019-03-26T05:02:51.338Z,10.90
2019-03-26T05:05:18.757Z,10.40
2019-03-26T05:07:46.144Z,9.50
2019-03-26T05:10:13.629Z,10.13
2019-03-26T05:12:41.014Z,9.70
2019-03-26T05:15:08.516Z,10.10
2019-03-26T05:17:35.890Z,10.43
2019-03-26T05:20:03.778Z,11.23
2019-03-26T05:22:31.176Z,10.50
2019-03-26T05:24:58.660Z,10.10
2019-03-26T05:27:26.161Z,11.40
2019-03-26T05:29:53.590Z,10.10
2019-03-26T05:32:20.984Z,10.30
2019-03-26T05:34:48.396Z,11.50
2019-03-26T05:37:15.792Z,10.87
2019-03-26T05:39:43.197Z,10.10
2019-03-26T05:42:10.583Z,9.60
2019-03-26T05:44:38.004Z,10.40
2019-03-26T05:47:05.385Z,10.60
2019-03-26T05:49:32.802Z,9.47
2019-03-26T05:52:00.199Z,10.57
2019-03-26T05:54:27.615Z,10.23
2019-03-26T05:56:55.000Z,10.80
2019-03-26T05:59:22.412Z,11.27
2019-03-26T06:01:49.815Z,12.10
2019-03-26T06:04:17.329Z,12.70
2019-03-26T06:06:44.768Z,12.80
2019-03-26T06:09:12.200Z,11.90
2019-03-26T06:11:39.644Z,12.73
2019-03-26T06:14:07.043Z,11.57
2019-03-26T06:16:38.471Z,11.73
2019-03-26T06:19:03.507Z,12.73
2019-03-26T06:21:30.933Z,13.73
2019-03-26T06:23:58.330Z,11.93
2019-03-26T06:26:25.810Z,11.30
2019-03-26T06:28:53.205Z,13.33
2019-03-26T06:31:20.627Z,12.73
2019-03-26T06:33:48.024Z,12.20
2019-03-26T06:36:15.434Z,15.70
2019-03-26T06:38:42.873Z,34.73
2019-03-26T06:41:10.301Z,15.13
2019-03-26T06:43:37.685Z,14.53
2019-03-26T06:46:05.111Z,14.30
2019-03-26T06:48:32.500Z,13.37
2019-03-26T06:50:59.927Z,13.30
2019-03-26T06:53:27.315Z,12.60
2019-03-26T06:55:54.805Z,11.17
2019-03-26T06:58:22.262Z,11.80
2019-03-26T07:00:49.725Z,9.20
2019-03-26T07:03:17.109Z,8.50
2019-03-26T07:05:44.529Z,9.40
2019-03-26T07:08:11.915Z,7.23
2019-03-26T07:10:39.341Z,7.20
2019-03-26T07:13:06.779Z,12.20
2019-03-26T07:15:34.253Z,12.23
2019-03-26T07:18:01.683Z,11.17
2019-03-26T07:20:29.177Z,10.50
2019-03-26T07:22:56.565Z,10.23
2019-03-26T07:25:23.969Z,9.43
2019-03-26T07:27:51.353Z,10.30
2019-03-26T07:30:32.430Z,10.83
2019-03-26T07:32:59.819Z,9.17
2019-03-26T07:35:27.229Z,10.43
2019-03-26T07:37:54.614Z,9.00
2019-03-26T07:40:22.036Z,9.10
2019-03-26T07:42:49.418Z,8.57
2019-03-26T07:45:16.826Z,9.43
2019-03-26T07:47:44.214Z,8.90
2019-03-26T07:50:13.966Z,6.20
2019-03-26T07:52:40.722Z,5.73
2019-03-26T07:55:08.269Z,5.70
2019-03-26T07:57:35.746Z,5.60
2019-03-26T08:00:04.972Z,5.80
2019-03-26T08:02:32.386Z,6.20
2019-03-26T08:04:59.761Z,5.50
2019-03-26T08:07:27.176Z,5.60
2019-03-26T08:09:54.557Z,5.53
2019-03-26T08:12:21.958Z,5.23
2019-03-26T08:14:49.358Z,6.20
2019-03-26T08:17:16.796Z,17.27
2019-03-26T08:19:44.161Z,11.50
2019-03-26T08:22:11.570Z,6.57
2019-03-26T08:24:38.944Z,5.37
2019-03-26T08:27:06.356Z,6.73
2019-03-26T08:29:33.724Z,5.63
2019-03-26T08:32:01.141Z,6.17
2019-03-26T08:34:28.715Z,5.83
2019-03-26T08:36:56.349Z,5.73
2019-03-26T08:39:23.821Z,5.37
2019-03-26T08:41:51.382Z,5.57
2019-03-26T08:44:18.730Z,5.70
2019-03-26T08:46:46.458Z,6.50
2019-03-26T08:49:14.325Z,5.80
2019-03-26T08:51:41.728Z,5.73
2019-03-26T08:54:09.112Z,5.67
2019-03-26T08:56:36.518Z,5.57
2019-03-26T08:59:03.976Z,4.93
2019-03-26T09:01:31.388Z,5.70
2019-03-26T09:03:58.773Z,5.60
2019-03-26T09:06:26.186Z,6.23
2019-03-26T09:08:53.569Z,6.10
2019-03-26T09:11:21.047Z,5.50
2019-03-26T09:13:48.427Z,5.77
2019-03-26T09:16:15.843Z,6.97
2019-03-26T09:18:43.225Z,5.60
2019-03-26T09:21:10.655Z,5.43
2019-03-26T09:23:38.031Z,6.63
2019-03-26T09:26:05.416Z,6.37
2019-03-26T09:28:32.821Z,5.47
2019-03-26T09:31:00.210Z,5.30
2019-03-26T09:33:27.618Z,7.17
2019-03-26T09:35:55.006Z,6.50
2019-03-26T09:38:22.413Z,6.73
2019-03-26T09:40:49.804Z,6.40
2019-03-26T09:43:17.209Z,6.10
2019-03-26T09:45:44.592Z,6.90
2019-03-26T09:48:11.997Z,6.90
2019-03-26T09:50:39.388Z,6.50
2019-03-26T09:53:06.853Z,6.97
2019-03-26T09:55:34.247Z,7.57
2019-03-26T09:58:01.651Z,6.07
2019-03-26T10:00:29.055Z,6.20
2019-03-26T10:02:56.447Z,7.20
2019-03-26T10:05:23.834Z,5.80
2019-03-26T10:07:51.249Z,5.63
2019-03-26T10:10:18.797Z,5.42
2019-03-26T10:12:46.277Z,4.77
2019-03-26T10:15:13.729Z,3.87
2019-03-26T10:17:41.133Z,4.97
2019-03-26T10:20:08.589Z,4.63
2019-03-26T10:22:36.860Z,4.30
2019-03-26T10:25:10.847Z,3.40
2019-03-26T10:27:37.299Z,4.40
2019-03-26T10:30:06.052Z,3.50
2019-03-26T10:32:33.505Z,3.60
2019-03-26T10:35:00.917Z,3.40
2019-03-26T10:37:28.302Z,3.57
2019-03-26T10:39:55.710Z,4.60
2019-03-26T10:42:23.086Z,3.60
2019-03-26T10:44:50.495Z,4.00
2019-03-26T10:47:17.890Z,3.80
2019-03-26T10:49:45.298Z,3.50
2019-03-26T10:52:12.828Z,3.37
2019-03-26T10:54:40.263Z,3.53
2019-03-26T10:57:07.636Z,3.50
2019-03-26T10:59:35.043Z,3.53
2019-03-26T11:02:02.423Z,3.93
2019-03-26T11:04:29.832Z,3.37
2019-03-26T11:06:57.213Z,3.67
2019-03-26T11:09:27.210Z,3.60
2019-03-26T11:11:53.656Z,3.50
2019-03-26T11:14:21.065Z,3.07
2019-03-26T11:16:48.444Z,3.13
2019-03-26T11:19:15.846Z,3.97
2019-03-26T11:21:43.308Z,2.80
2019-03-26T11:24:10.765Z,3.60
2019-03-26T11:26:38.146Z,3.40
2019-03-26T11:29:05.554Z,4.50
2019-03-26T11:31:32.961Z,4.27
2019-03-26T11:34:00.344Z,3.70
2019-03-26T11:36:27.725Z,4.60
2019-03-26T11:38:55.199Z,3.80
2019-03-26T11:41:22.590Z,3.47
2019-03-26T11:43:50.006Z,3.37
2019-03-26T11:46:17.389Z,2.90
2019-03-26T11:48:44.799Z,3.60
2019-03-26T11:51:12.179Z,3.30
2019-03-26T11:53:39.553Z,3.53
2019-03-26T11:56:06.968Z,3.90
2019-03-26T11:58:34.347Z,3.70
2019-03-26T12:01:01.778Z,3.30
2019-03-26T12:03:29.165Z,3.10
2019-03-26T12:05:56.577Z,3.30
2019-03-26T12:08:23.961Z,3.40
2019-03-26T12:10:51.439Z,3.83
2019-03-26T12:13:18.809Z,3.27
2019-03-26T12:15:46.217Z,3.70
2019-03-26T12:18:13.604Z,3.77
2019-03-26T12:20:41.009Z,3.80
2019-03-26T12:23:08.390Z,5.40
2019-03-26T12:25:35.796Z,4.20
2019-03-26T12:28:03.196Z,4.87
2019-03-26T12:30:34.484Z,4.80
2019-03-26T12:33:01.926Z,4.60
2019-03-26T12:35:29.700Z,5.13
2019-03-26T12:37:57.746Z,4.67
2019-03-26T12:40:25.231Z,5.77
2019-03-26T12:42:52.613Z,5.83
2019-03-26T12:45:20.015Z,5.97
2019-03-26T12:47:47.406Z,7.40
2019-03-26T12:50:14.882Z,7.37
2019-03-26T12:52:42.261Z,5.33
2019-03-26T12:55:09.665Z,6.70
2019-03-26T12:57:37.047Z,7.50
2019-03-26T13:00:08.612Z,7.50
2019-03-26T13:02:36.321Z,8.67
2019-03-26T13:05:07.109Z,9.03
2019-03-26T13:07:34.493Z,8.50
2019-03-26T13:10:12.617Z,9.13
2019-03-26T13:12:30.924Z,8.30
2019-03-26T13:14:59.526Z,10.57
2019-03-26T13:17:27.033Z,9.90
2019-03-26T13:19:54.408Z,10.23
2019-03-26T13:22:21.826Z,8.97
2019-03-26T13:24:49.817Z,8.78
2019-03-26T13:27:17.234Z,9.67
2019-03-26T13:29:44.619Z,10.20
2019-03-26T13:32:13.142Z,9.23
2019-03-26T13:34:40.621Z,9.67
2019-03-26T13:37:08.042Z,10.80
2019-03-26T13:39:35.428Z,9.33
2019-03-26T13:42:02.838Z,9.20
2019-03-26T13:44:30.229Z,11.30
2019-03-26T13:46:57.645Z,11.53
2019-03-26T13:49:25.032Z,9.90
2019-03-26T13:51:52.452Z,9.63
2019-03-26T13:54:19.838Z,10.03
2019-03-26T13:56:47.252Z,9.97
2019-03-26T13:59:14.644Z,9.27
2019-03-26T14:01:42.130Z,9.27
2019-03-26T14:04:09.510Z,9.53
2019-03-26T14:06:36.942Z,8.53
2019-03-26T14:09:06.077Z,7.93
2019-03-26T14:11:33.497Z,8.80
2019-03-26T14:14:00.984Z,8.70
2019-03-26T14:16:28.389Z,8.23
2019-03-26T14:18:55.774Z,8.87
2019-03-26T14:21:23.189Z,8.27
2019-03-26T14:23:50.573Z,9.17
2019-03-26T14:26:17.990Z,9.50
2019-03-26T14:28:45.373Z,10.80
2019-03-26T14:31:12.760Z,10.30
2019-03-26T14:33:40.176Z,10.60
2019-03-26T14:36:07.566Z,10.70
2019-03-26T14:38:34.978Z,11.10
2019-03-26T14:41:02.368Z,12.57
2019-03-26T14:43:29.780Z,11.40
2019-03-26T14:45:57.168Z,12.37
2019-03-26T14:48:24.581Z,14.00
2019-03-26T14:50:51.977Z,12.10
2019-03-26T14:53:19.394Z,12.63
2019-03-26T14:55:47.253Z,14.77
2019-03-26T14:58:14.664Z,12.37
2019-03-26T15:00:42.138Z,12.73
2019-03-26T15:03:09.545Z,14.23
2019-03-26T15:05:36.936Z,13.73
2019-03-26T15:08:04.427Z,12.63
2019-03-26T15:10:31.804Z,12.60
2019-03-26T15:12:59.225Z,12.63
2019-03-26T15:15:26.688Z,13.10
2019-03-26T15:17:54.102Z,14.77
2019-03-26T15:20:21.489Z,14.57
2019-03-26T15:22:48.909Z,16.20
2019-03-26T15:25:16.302Z,13.57
2019-03-26T15:27:43.712Z,12.53
2019-03-26T15:30:11.471Z,14.00
2019-03-26T15:32:38.885Z,15.13
2019-03-26T15:35:06.342Z,12.30
2019-03-26T15:37:33.757Z,11.67
2019-03-26T15:40:01.148Z,13.77
2019-03-26T15:42:28.557Z,11.60
2019-03-26T15:44:55.938Z,12.00
2019-03-26T15:47:23.354Z,13.97
2019-03-26T15:49:50.742Z,11.20
2019-03-26T15:52:18.130Z,10.90
2019-03-26T15:54:45.605Z,10.90
2019-03-26T15:57:12.945Z,10.60
2019-03-26T15:59:40.366Z,10.63
2019-03-26T16:02:07.756Z,12.77
2019-03-26T16:04:35.178Z,11.57
2019-03-26T16:07:02.570Z,13.00
2019-03-26T16:09:29.978Z,10.77
2019-03-26T16:11:57.441Z,11.00
2019-03-26T16:14:27.981Z,10.33
2019-03-26T16:16:53.881Z,10.90
2019-03-26T16:19:32.049Z,11.83
2019-03-26T16:21:50.318Z,10.10
2019-03-26T16:24:17.734Z,11.60
2019-03-26T16:26:45.117Z,9.87
2019-03-26T16:29:12.578Z,10.80
2019-03-26T16:31:39.966Z,8.93
2019-03-26T16:34:07.378Z,9.07
2019-03-26T16:36:34.837Z,7.77
2019-03-26T16:39:02.242Z,7.20
2019-03-26T16:41:29.625Z,9.17
2019-03-26T16:43:57.103Z,8.67
2019-03-26T16:46:24.431Z,10.40
2019-03-26T16:48:51.838Z,9.17
2019-03-26T16:51:19.224Z,8.70
2019-03-26T16:53:46.677Z,9.10
2019-03-26T16:56:14.136Z,8.70
2019-03-26T16:58:41.540Z,9.57
2019-03-26T17:01:10.151Z,11.80
2019-03-26T17:03:37.636Z,10.17
2019-03-26T17:06:05.049Z,8.78
2019-03-26T17:08:32.463Z,9.00
2019-03-26T17:10:59.850Z,9.20
2019-03-26T17:13:27.225Z,9.90
2019-03-26T17:15:54.646Z,10.43
2019-03-26T17:18:22.028Z,9.30
2019-03-26T17:20:49.443Z,11.80
2019-03-26T17:23:16.816Z,10.60
2019-03-26T17:25:44.230Z,9.50
2019-03-26T17:28:11.613Z,11.30
2019-03-26T17:30:39.021Z,9.23
2019-03-26T17:33:06.473Z,9.20
2019-03-26T17:35:33.893Z,9.47
2019-03-26T17:38:01.280Z,11.97
2019-03-26T17:40:28.693Z,10.00
2019-03-26T17:42:56.089Z,10.43
2019-03-26T17:45:23.509Z,11.00
2019-03-26T17:47:50.894Z,9.90
2019-03-26T17:50:18.306Z,11.90
2019-03-26T17:52:45.717Z,11.13
2019-03-26T17:55:13.197Z,10.83
2019-03-26T17:57:40.583Z,12.70
2019-03-26T18:00:09.533Z,10.43
2019-03-26T18:02:36.912Z,11.50
2019-03-26T18:05:05.872Z,11.87
2019-03-26T18:07:33.252Z,12.00
2019-03-26T18:10:00.678Z,10.93
2019-03-26T18:12:31.048Z,12.77
2019-03-26T18:14:58.733Z,13.80
2019-03-26T18:17:26.122Z,11.40
2019-03-26T18:19:53.517Z,11.70
2019-03-26T18:22:20.937Z,14.93
2019-03-26T18:24:48.316Z,22.87
2019-03-26T18:27:15.728Z,25.10
2019-03-26T18:29:43.128Z,19.87
2019-03-26T18:32:10.542Z,17.57
2019-03-26T18:34:37.923Z,15.17
2019-03-26T18:37:05.356Z,13.63
2019-03-26T18:39:32.755Z,15.37
2019-03-26T18:42:00.224Z,12.40
2019-03-26T18:44:27.618Z,13.00
2019-03-26T18:46:55.041Z,13.50
2019-03-26T18:49:22.430Z,14.67
2019-03-26T18:51:49.859Z,11.60
2019-03-26T18:54:17.315Z,15.17
2019-03-26T18:56:44.722Z,16.87
2019-03-26T18:59:12.150Z,16.33
2019-03-26T19:01:39.560Z,15.87
2019-03-26T19:04:06.947Z,14.47
2019-03-26T19:06:34.356Z,14.87
2019-03-26T19:09:01.736Z,14.90
2019-03-26T19:11:29.163Z,14.27
2019-03-26T19:13:56.553Z,14.30
2019-03-26T19:16:23.975Z,13.87
2019-03-26T19:18:51.438Z,14.90
2019-03-26T19:21:18.848Z,14.70
2019-03-26T19:23:46.250Z,15.23
2019-03-26T19:26:13.681Z,12.97
2019-03-26T19:28:41.170Z,13.80
2019-03-26T19:31:08.633Z,13.57
2019-03-26T19:33:36.120Z,14.43
2019-03-26T19:36:03.582Z,15.70
2019-03-26T19:38:31.002Z,16.17
2019-03-26T19:40:58.390Z,16.83
2019-03-26T19:43:25.948Z,16.10
2019-03-26T19:45:53.367Z,14.97
2019-03-26T19:48:20.792Z,17.07
2019-03-26T19:50:48.285Z,16.03
2019-03-26T19:53:15.743Z,15.07
2019-03-26T19:55:43.198Z,16.30
2019-03-26T19:58:10.690Z,16.50
2019-03-26T20:00:38.285Z,16.70
2019-03-26T20:03:05.771Z,16.30
2019-03-26T20:05:35.412Z,17.53
2019-03-26T20:08:02.241Z,16.20
2019-03-26T20:10:29.691Z,16.40
2019-03-26T20:12:57.053Z,17.00
2019-03-26T20:15:24.506Z,15.18
2019-03-26T20:17:51.921Z,15.50
2019-03-26T20:20:19.576Z,15.33
2019-03-26T20:22:47.066Z,14.20
2019-03-26T20:25:14.535Z,16.23
2019-03-26T20:27:41.947Z,16.17
2019-03-26T20:30:10.877Z,15.00
2019-03-26T20:32:38.311Z,16.90
2019-03-26T20:35:07.231Z,17.97
2019-03-26T20:37:34.713Z,16.57
2019-03-26T20:40:02.253Z,16.57
2019-03-26T20:42:29.667Z,15.17
2019-03-26T20:44:57.069Z,15.50
2019-03-26T20:47:24.486Z,17.57
2019-03-26T20:49:51.872Z,15.67
2019-03-26T20:52:19.288Z,18.50
2019-03-26T20:54:46.712Z,16.90
2019-03-26T20:57:14.060Z,17.10
2019-03-26T20:59:41.478Z,17.20
2019-03-26T21:02:08.873Z,17.60
2019-03-26T21:04:36.299Z,17.90
2019-03-26T21:07:03.672Z,17.30
2019-03-26T21:09:31.090Z,17.73
2019-03-26T21:11:58.476Z,17.53
2019-03-26T21:14:25.933Z,16.13
2019-03-26T21:16:53.274Z,16.77
2019-03-26T21:19:20.687Z,14.57
2019-03-26T21:21:48.074Z,15.93
2019-03-26T21:24:15.490Z,15.47
2019-03-26T21:26:42.878Z,15.57
2019-03-26T21:29:10.290Z,15.27
2019-03-26T21:31:37.681Z,15.50
2019-03-26T21:34:05.102Z,16.50
2019-03-26T21:36:32.503Z,15.70
2019-03-26T21:38:59.916Z,14.47
2019-03-26T21:41:27.311Z,14.47
2019-03-26T21:44:04.104Z,14.30
2019-03-26T21:46:23.754Z,15.10
2019-03-26T21:48:51.170Z,16.17
2019-03-26T21:51:18.561Z,14.30
2019-03-26T21:53:45.975Z,15.90
2019-03-26T21:56:13.366Z,15.13
2019-03-26T21:58:40.781Z,16.47
2019-03-26T22:01:08.172Z,15.70
2019-03-26T22:03:35.589Z,15.10
2019-03-26T22:06:03.050Z,17.13
2019-03-26T22:08:30.480Z,14.57
2019-03-26T22:10:57.847Z,16.07
2019-03-26T22:13:25.270Z,15.23
2019-03-26T22:15:52.664Z,15.60
2019-03-26T22:18:20.077Z,14.90
2019-03-26T22:20:47.461Z,15.90
2019-03-26T22:23:14.937Z,13.20
2019-03-26T22:25:42.330Z,15.50
2019-03-26T22:28:09.748Z,15.20
2019-03-26T22:30:37.134Z,14.70
2019-03-26T22:33:04.546Z,14.03
2019-03-26T22:35:31.932Z,14.20
2019-03-26T22:37:59.315Z,13.67
2019-03-26T22:40:26.733Z,14.10
2019-03-26T22:42:54.122Z,13.30
2019-03-26T22:45:21.599Z,11.73
2019-03-26T22:47:49.006Z,14.07
2019-03-26T22:50:16.483Z,13.50
2019-03-26T22:52:43.869Z,13.13
2019-03-26T22:55:11.548Z,13.77
2019-03-26T22:57:39.013Z,12.47
2019-03-26T23:00:08.045Z,12.40
2019-03-26T23:02:35.444Z,13.80
2019-03-26T23:05:03.000Z,13.60
2019-03-26T23:07:30.393Z,13.80
2019-03-26T23:09:57.814Z,12.23
2019-03-26T23:12:25.206Z,12.67
2019-03-26T23:14:52.630Z,13.10
2019-03-26T23:17:20.022Z,12.93
2019-03-26T23:19:47.443Z,12.07
2019-03-26T23:22:14.828Z,12.90
2019-03-26T23:24:42.236Z,12.63
2019-03-26T23:27:09.622Z,13.30
2019-03-26T23:29:37.102Z,11.23
2019-03-26T23:32:04.494Z,13.83
2019-03-26T23:34:31.926Z,13.90
2019-03-26T23:36:59.312Z,12.13
2019-03-26T23:39:26.725Z,11.87
2019-03-26T23:41:54.113Z,11.63
2019-03-26T23:44:26.029Z,12.40
2019-03-26T23:46:50.569Z,12.53
2019-03-26T23:49:17.981Z,11.40
2019-03-26T23:51:45.370Z,10.33
2019-03-26T23:54:12.785Z,11.17
2019-03-26T23:56:40.173Z,10.67
2019-03-26T23:59:07.581Z,10.60
